Time;durP1;ratioP1;P1;durP2;ratioP2;P2;SDS_P1;SDS_P2;PMS_P1;PMS_P2;Temp;Humidity;BMP_temperature;BMP_pressure;BME280_temperature;BME280_humidity;BME280_pressure;Samples;Min_cycle;Max_cycle;Signal;HPM_P1;HPM_P2
2021/06/15 00:01:55;;;;;;;3.50;2.67;;;18.60;89.80;;;;;;5045346;28;20048;-80
2021/06/15 00:04:20;;;;;;;4.25;2.42;;;18.60;89.90;;;;;;5043182;28;20090;-80
2021/06/15 00:06:46;;;;;;;6.00;2.97;;;18.50;89.80;;;;;;5045658;28;20052;-80
2021/06/15 00:09:11;;;;;;;7.18;3.15;;;18.50;90.00;;;;;;5039725;28;20154;-79
2021/06/15 00:11:37;;;;;;;5.78;3.25;;;18.50;90.00;;;;;;5044396;28;20041;-79
2021/06/15 00:14:03;;;;;;;3.60;2.58;;;18.50;90.40;;;;;;5045552;28;20351;-79
2021/06/15 00:16:29;;;;;;;3.58;2.70;;;18.50;90.40;;;;;;5052254;28;20067;-81
2021/06/15 00:18:55;;;;;;;5.25;2.63;;;18.50;90.40;;;;;;5039266;28;20482;-81
2021/06/15 00:21:20;;;;;;;6.28;3.33;;;18.40;90.40;;;;;;5050511;28;20062;-81
2021/06/15 00:23:46;;;;;;;5.03;2.53;;;18.40;90.40;;;;;;5043469;28;20332;-81
2021/06/15 00:26:11;;;;;;;4.55;2.58;;;18.30;90.50;;;;;;5048959;28;20136;-81
2021/06/15 00:28:37;;;;;;;4.70;3.10;;;18.40;90.60;;;;;;5041517;28;20083;-80
2021/06/15 00:31:03;;;;;;;5.40;2.65;;;18.30;90.50;;;;;;5051170;28;20033;-81
2021/06/15 00:33:28;;;;;;;4.55;2.63;;;18.30;90.60;;;;;;5049796;28;20447;-80
2021/06/15 00:35:54;;;;;;;4.60;2.70;;;18.30;90.60;;;;;;5042227;28;20055;-81
2021/06/15 00:38:19;;;;;;;4.45;2.78;;;18.30;90.70;;;;;;5041769;28;20037;-81
2021/06/15 00:40:45;;;;;;;6.38;2.95;;;18.30;90.70;;;;;;5042820;28;20420;-81
2021/06/15 00:43:11;;;;;;;3.47;2.42;;;18.30;90.60;;;;;;5039045;28;20045;-81
2021/06/15 00:45:36;;;;;;;4.20;2.53;;;18.30;90.70;;;;;;5044942;28;20045;-81
2021/06/15 00:48:02;;;;;;;5.47;2.75;;;18.30;90.80;;;;;;5046688;28;20040;-81
2021/06/15 00:50:29;;;;;;;2.85;2.42;;;18.20;90.80;;;;;;5047923;28;20045;-81
2021/06/15 00:52:55;;;;;;;4.30;2.05;;;18.20;91.00;;;;;;5042295;28;20037;-81
2021/06/15 00:55:23;;;;;;;3.08;2.17;;;18.20;91.10;;;;;;5039963;28;20037;-82
2021/06/15 00:57:49;;;;;;;3.53;2.45;;;18.20;91.00;;;;;;5041551;28;20150;-81
2021/06/15 01:00:15;;;;;;;8.48;2.25;;;18.20;91.00;;;;;;5044327;28;20087;-82
2021/06/15 01:02:41;;;;;;;3.72;1.98;;;18.20;90.90;;;;;;5040360;28;20041;-81
2021/06/15 01:05:09;;;;;;;3.85;2.90;;;18.20;91.00;;;;;;5048992;28;20060;-82
2021/06/15 01:08:08;;;;;;;4.03;3.00;;;18.20;91.00;;;;;;5059581;28;20551;-82
2021/06/15 01:10:43;;;;;;;3.30;2.05;;;18.20;91.10;;;;;;5049761;28;20146;-82
2021/06/15 01:13:12;;;;;;;4.20;2.72;;;18.10;91.10;;;;;;5052426;28;20040;-80
2021/06/15 01:15:55;;;;;;;4.55;2.30;;;18.10;91.10;;;;;;5051636;28;20041;-81
2021/06/15 01:18:24;;;;;;;5.28;2.88;;;18.10;91.10;;;;;;5050537;28;20029;-81
2021/06/15 01:21:00;;;;;;;3.58;2.25;;;18.10;91.10;;;;;;5045725;28;20423;-81
2021/06/15 01:23:38;;;;;;;3.58;2.22;;;18.10;91.20;;;;;;5047980;28;20083;-81
2021/06/15 01:26:56;;;;;;;3.60;2.25;;;18.00;91.20;;;;;;5045542;28;20040;-81
2021/06/15 01:29:29;;;;;;;3.97;2.55;;;18.00;91.20;;;;;;5047941;28;20099;-81
2021/06/15 01:32:02;;;;;;;5.57;2.63;;;18.00;91.30;;;;;;5049252;28;20033;-81
2021/06/15 01:34:29;;;;;;;;;;;17.90;91.50;;;;;;5050881;28;20111;-80
2021/06/15 01:37:20;;;;;;;6.10;2.75;;;17.90;91.50;;;;;;5044291;28;20226;-80
2021/06/15 01:39:54;;;;;;;6.78;3.50;;;17.80;91.60;;;;;;5042841;28;20041;-81
2021/06/15 01:42:26;;;;;;;4.18;2.78;;;17.80;91.80;;;;;;5049997;28;20028;-80
2021/06/15 01:44:56;;;;;;;;;;;17.70;91.80;;;;;;5052289;28;20033;-81
2021/06/15 01:47:26;;;;;;;4.25;2.50;;;17.70;91.80;;;;;;5051408;28;19966;-81
2021/06/15 01:49:59;;;;;;;4.82;2.30;;;17.70;91.80;;;;;;5042995;28;20045;-82
2021/06/15 01:52:28;;;;;;;;;;;17.60;92.00;;;;;;5043388;28;20375;-82
2021/06/15 01:54:55;;;;;;;4.18;2.47;;;17.60;92.00;;;;;;5051333;28;19999;-80
2021/06/15 01:57:22;;;;;;;4.32;2.63;;;17.50;92.10;;;;;;5043727;28;20033;-80
2021/06/15 01:59:50;;;;;;;4.07;3.08;;;17.50;92.30;;;;;;5047631;28;20072;-80
2021/06/15 02:02:17;;;;;;;4.30;2.78;;;17.50;92.40;;;;;;5049858;28;20115;-80
2021/06/15 02:04:48;;;;;;;4.78;3.25;;;17.50;92.50;;;;;;5045829;28;20489;-80
2021/06/15 02:07:29;;;;;;;3.67;2.45;;;17.40;92.50;;;;;;5048766;28;20119;-80
2021/06/15 02:10:01;;;;;;;3.58;2.65;;;17.40;92.50;;;;;;5039203;28;20072;-80
2021/06/15 02:12:30;;;;;;;4.15;2.92;;;17.40;92.60;;;;;;5039079;28;20131;-80
2021/06/15 02:14:56;;;;;;;6.15;2.78;;;17.40;92.70;;;;;;5038757;28;20048;-80
2021/06/15 02:17:25;;;;;;;4.13;2.58;;;17.30;92.70;;;;;;5051399;28;20045;-81
2021/06/15 02:19:51;;;;;;;3.38;2.80;;;17.30;92.80;;;;;;5051615;28;20033;-80
2021/06/15 02:22:19;;;;;;;3.72;2.67;;;17.30;92.80;;;;;;5040275;28;20063;-80
2021/06/15 02:24:50;;;;;;;6.03;3.22;;;17.30;92.90;;;;;;5047750;28;20128;-82
2021/06/15 02:27:17;;;;;;;4.03;2.40;;;17.30;93.00;;;;;;5045370;28;20377;-82
2021/06/15 02:29:43;;;;;;;5.53;3.25;;;17.30;93.10;;;;;;5043942;28;20041;-80
2021/06/15 02:32:11;;;;;;;6.07;3.05;;;17.30;93.10;;;;;;5047790;28;20037;-80
2021/06/15 02:34:43;;;;;;;4.85;2.92;;;17.20;93.20;;;;;;5042576;28;20041;-80
2021/06/15 02:37:12;;;;;;;7.38;3.00;;;17.30;93.20;;;;;;5047366;28;20037;-81
2021/06/15 02:39:38;;;;;;;8.27;2.75;;;17.20;93.20;;;;;;5054997;28;20300;-81
2021/06/15 02:42:08;;;;;;;4.22;2.83;;;17.20;93.20;;;;;;5046368;28;20061;-81
2021/06/15 02:44:38;;;;;;;3.67;2.53;;;17.20;93.30;;;;;;5047700;28;20041;-81
2021/06/15 02:47:05;;;;;;;7.47;2.97;;;17.20;93.30;;;;;;5048113;28;20041;-81
2021/06/15 02:49:37;;;;;;;4.47;2.78;;;17.30;93.30;;;;;;5049828;28;20103;-81
2021/06/15 02:52:12;;;;;;;4.13;3.08;;;17.30;93.50;;;;;;5053467;28;20040;-81
2021/06/15 02:54:50;;;;;;;6.43;2.63;;;17.30;93.50;;;;;;5052554;28;20278;-81
2021/06/15 02:57:17;;;;;;;5.07;2.85;;;17.30;93.20;;;;;;5048243;28;20140;-81
2021/06/15 02:59:42;;;;;;;6.32;3.08;;;17.30;93.20;;;;;;5045046;28;20458;-81
2021/06/15 03:02:08;;;;;;;3.83;2.42;;;17.30;93.10;;;;;;5046819;28;20049;-81
2021/06/15 03:04:34;;;;;;;6.80;2.75;;;17.30;93.10;;;;;;5044236;28;20029;-80
2021/06/15 03:06:59;;;;;;;7.40;2.95;;;17.40;93.10;;;;;;5047996;28;20056;-80
2021/06/15 03:09:25;;;;;;;5.05;2.83;;;17.40;93.10;;;;;;5047690;28;20079;-82
2021/06/15 03:12:13;;;;;;;4.68;2.80;;;17.40;93.20;;;;;;5042547;28;20298;-81
2021/06/15 03:14:44;;;;;;;4.95;3.03;;;17.40;93.20;;;;;;5040495;28;20114;-81
2021/06/15 03:17:11;;;;;;;5.18;2.95;;;17.40;93.10;;;;;;5077380;28;20033;-81
2021/06/15 03:20:00;;;;;;;5.63;3.60;;;17.40;93.10;;;;;;5044318;28;20048;-82
2021/06/15 03:22:34;;;;;;;4.22;3.03;;;17.50;93.10;;;;;;5066752;28;20051;-81
2021/06/15 03:25:03;;;;;;;5.18;2.92;;;17.50;93.00;;;;;;5044020;28;20063;-81
2021/06/15 03:27:38;;;;;;;6.95;3.13;;;17.50;93.00;;;;;;5040599;28;20131;-81
2021/06/15 03:30:10;;;;;;;5.38;3.30;;;17.60;92.90;;;;;;5046344;28;20045;-80
2021/06/15 03:32:54;;;;;;;5.63;3.60;;;17.60;92.90;;;;;;5035397;28;20037;-81
2021/06/15 03:35:21;;;;;;;5.60;2.92;;;17.50;92.90;;;;;;5043024;28;20037;-81
2021/06/15 03:37:52;;;;;;;7.10;3.78;;;17.60;92.90;;;;;;5042453;28;20045;-81
2021/06/15 03:40:21;;;;;;;6.20;2.88;;;17.60;93.00;;;;;;5040907;28;20075;-81
2021/06/15 03:42:49;;;;;;;7.07;3.28;;;17.60;93.00;;;;;;5049811;28;20440;-80
2021/06/15 03:45:14;;;;;;;5.68;3.10;;;17.60;93.00;;;;;;5045296;28;20045;-80
2021/06/15 03:47:43;;;;;;;6.05;3.17;;;17.70;93.00;;;;;;5048332;28;20411;-79
2021/06/15 03:50:10;;;;;;;5.72;3.00;;;17.70;93.00;;;;;;5049174;28;20048;-79
2021/06/15 03:52:40;;;;;;;8.50;4.18;;;17.70;93.00;;;;;;5044553;28;20051;-80
2021/06/15 03:55:08;;;;;;;6.13;3.15;;;17.70;92.90;;;;;;5040992;28;20290;-80
2021/06/15 03:57:41;;;;;;;7.30;3.30;;;17.70;92.90;;;;;;5041635;28;20033;-82
2021/06/15 04:00:14;;;;;;;4.05;2.58;;;17.80;92.90;;;;;;5049144;28;20037;-81
2021/06/15 04:06:04;;;;;;;7.05;4.00;;;17.90;92.70;;;;;;5049191;28;20070;-82
2021/06/15 04:08:32;;;;;;;5.63;3.42;;;17.90;92.60;;;;;;5038907;28;20114;-81
2021/06/15 04:10:58;;;;;;;4.93;3.00;;;18.00;92.60;;;;;;5044166;28;20029;-82
2021/06/15 04:13:25;;;;;;;4.80;2.63;;;18.00;92.60;;;;;;5038093;28;20040;-81
2021/06/15 04:15:53;;;;;;;6.70;2.90;;;18.10;92.50;;;;;;5039179;28;20037;-83
2021/06/15 04:18:21;;;;;;;5.32;2.75;;;18.10;92.40;;;;;;5040286;28;20045;-81
2021/06/15 04:20:50;;;;;;;7.18;3.30;;;18.10;92.30;;;;;;5039004;28;20052;-81
2021/06/15 04:23:27;;;;;;;6.45;2.55;;;18.20;92.10;;;;;;5043402;28;20056;-81
2021/06/15 04:25:52;;;;;;;4.38;2.70;;;18.20;92.10;;;;;;5052779;28;20434;-81
2021/06/15 04:28:18;;;;;;;7.18;3.30;;;18.30;92.00;;;;;;5049555;28;20041;-80
2021/06/15 04:30:45;;;;;;;8.57;3.03;;;18.30;91.90;;;;;;5052783;28;20064;-80
2021/06/15 04:33:13;;;;;;;7.72;3.38;;;18.40;91.80;;;;;;5040250;28;20044;-81
2021/06/15 04:35:42;;;;;;;8.45;3.40;;;18.50;91.70;;;;;;5049604;28;20044;-80
2021/06/15 04:38:23;;;;;;;5.38;3.17;;;18.50;91.50;;;;;;5051376;28;20052;-80
2021/06/15 04:40:51;;;;;;;7.50;2.45;;;18.50;91.40;;;;;;5045336;28;20036;-81
2021/06/15 04:43:28;;;;;;;3.30;2.60;;;18.60;91.50;;;;;;5041595;28;20044;-82
2021/06/15 04:46:19;;;;;;;7.55;3.05;;;18.70;91.20;;;;;;5045230;28;20052;-81
2021/06/15 04:48:48;;;;;;;5.00;3.03;;;18.70;91.30;;;;;;5040773;28;20300;-82
2021/06/15 04:51:19;;;;;;;4.88;2.78;;;18.70;91.00;;;;;;5043233;28;20037;-82
2021/06/15 04:53:45;;;;;;;6.25;3.40;;;18.80;91.00;;;;;;5048915;28;20155;-81
2021/06/15 04:56:13;;;;;;;4.95;3.40;;;18.80;91.00;;;;;;5038795;28;20112;-81
2021/06/15 04:58:40;;;;;;;6.35;3.17;;;18.90;90.80;;;;;;5047299;28;20045;-82
2021/06/15 05:01:06;;;;;;;4.20;3.28;;;19.00;90.70;;;;;;5044378;28;20120;-82
2021/06/15 05:03:32;;;;;;;5.97;3.30;;;19.10;90.60;;;;;;5041032;28;20128;-82
2021/06/15 05:06:04;;;;;;;8.02;3.50;;;19.10;90.50;;;;;;5036299;28;20038;-82
2021/06/15 05:08:33;;;;;;;6.67;2.87;;;19.20;90.50;;;;;;5037950;28;20045;-80
2021/06/15 05:11:01;;;;;;;10.88;2.75;;;19.20;90.30;;;;;;5040149;28;20279;-81
2021/06/15 05:13:29;;;;;;;5.38;3.28;;;19.30;90.20;;;;;;5047232;28;20328;-82
2021/06/15 05:15:57;;;;;;;6.13;3.10;;;19.30;90.10;;;;;;5053163;28;20091;-81
2021/06/15 05:18:23;;;;;;;4.88;2.97;;;19.50;89.80;;;;;;5039514;28;20044;-80
2021/06/15 05:20:49;;;;;;;8.10;2.80;;;19.50;90.00;;;;;;5053056;28;20051;-80
2021/06/15 05:23:20;;;;;;;11.57;3.58;;;19.50;90.20;;;;;;5053442;28;20041;-80
2021/06/15 05:25:48;;;;;;;6.18;2.75;;;19.60;89.40;;;;;;5053417;28;20100;-80
2021/06/15 05:28:14;;;;;;;8.93;2.97;;;19.70;89.20;;;;;;5054006;28;20033;-81
2021/06/15 05:30:39;;;;;;;4.63;2.95;;;19.70;88.30;;;;;;5052341;28;20052;-80
2021/06/15 05:33:05;;;;;;;8.48;3.10;;;19.80;88.70;;;;;;5053684;28;20316;-80
2021/06/15 05:35:30;;;;;;;5.72;2.97;;;19.80;88.80;;;;;;5053036;28;20036;-79
2021/06/15 05:37:56;;;;;;;6.75;3.03;;;19.80;89.60;;;;;;5052324;28;20051;-81
2021/06/15 05:40:22;;;;;;;9.63;3.40;;;19.80;89.20;;;;;;5049065;28;20313;-82
2021/06/15 05:42:48;;;;;;;5.03;2.85;;;19.80;89.20;;;;;;5039948;28;20036;-81
2021/06/15 05:45:15;;;;;;;8.77;3.85;;;19.70;89.80;;;;;;5054013;28;20094;-82
2021/06/15 05:47:43;;;;;;;10.93;3.22;;;19.80;89.90;;;;;;5054199;28;20044;-81
2021/06/15 05:50:09;;;;;;;12.20;3.53;;;19.80;89.80;;;;;;5056403;28;20037;-81
2021/06/15 05:52:34;;;;;;;8.23;3.83;;;19.80;90.00;;;;;;5056550;28;20036;-80
2021/06/15 05:55:01;;;;;;;5.68;3.22;;;19.80;90.10;;;;;;5047570;28;20041;-80
2021/06/15 05:57:30;;;;;;;6.15;3.38;;;19.90;90.20;;;;;;5055741;28;20048;-81
2021/06/15 05:59:56;;;;;;;6.88;3.80;;;20.00;90.20;;;;;;5056226;28;20083;-79
2021/06/15 06:02:21;;;;;;;7.97;3.08;;;20.00;90.00;;;;;;5056915;28;20431;-81
2021/06/15 06:04:52;;;;;;;6.00;3.20;;;20.10;89.70;;;;;;5055460;28;20050;-81
2021/06/15 06:10:03;;;;;;;7.97;3.85;;;20.30;88.10;;;;;;5056864;28;20461;-81
2021/06/15 06:12:29;;;;;;;10.10;2.85;;;20.40;87.80;;;;;;5055153;28;20610;-82
2021/06/15 06:14:54;;;;;;;7.97;3.53;;;20.50;87.80;;;;;;5056015;28;20044;-80
2021/06/15 06:17:20;;;;;;;5.85;2.88;;;20.60;86.50;;;;;;5056337;28;20036;-81
2021/06/15 06:19:46;;;;;;;10.75;2.53;;;20.80;86.80;;;;;;5056433;28;20561;-81
2021/06/15 06:22:13;;;;;;;6.72;3.05;;;20.90;86.40;;;;;;5056181;28;20043;-80
2021/06/15 06:24:40;;;;;;;4.57;2.60;;;21.10;84.50;;;;;;5055764;28;20091;-81
2021/06/15 06:27:05;;;;;;;3.85;2.78;;;21.30;83.50;;;;;;5055517;28;20047;-82
2021/06/15 06:29:31;;;;;;;8.82;2.97;;;21.40;82.90;;;;;;5055911;28;20060;-81
2021/06/15 06:31:56;;;;;;;4.85;1.85;;;21.60;83.10;;;;;;5055119;28;20060;-80
2021/06/15 06:34:22;;;;;;;8.05;2.13;;;21.70;83.20;;;;;;5056320;28;20061;-81
2021/06/15 06:36:47;;;;;;;6.53;3.25;;;21.80;82.50;;;;;;5055606;28;20045;-81
2021/06/15 06:39:13;;;;;;;9.40;3.08;;;21.90;82.10;;;;;;5055062;28;20107;-81
2021/06/15 06:41:39;;;;;;;11.15;2.67;;;22.00;82.00;;;;;;5056820;28;20312;-80
2021/06/15 06:44:05;;;;;;;6.65;2.45;;;22.10;81.30;;;;;;5056446;28;20041;-81
2021/06/15 06:46:30;;;;;;;5.22;2.38;;;22.20;82.10;;;;;;5055940;28;20045;-79
2021/06/15 06:48:56;;;;;;;6.45;2.33;;;22.30;81.20;;;;;;5056506;28;20083;-80
2021/06/15 06:51:21;;;;;;;5.43;2.67;;;22.30;79.90;;;;;;5057323;28;20412;-81
2021/06/15 06:53:47;;;;;;;7.60;2.35;;;22.40;79.80;;;;;;5056310;28;20051;-81
2021/06/15 06:56:13;;;;;;;4.60;2.60;;;22.60;80.70;;;;;;5054107;28;20064;-81
2021/06/15 06:58:39;;;;;;;4.50;2.30;;;22.60;80.30;;;;;;5056187;28;20440;-80
2021/06/15 07:01:04;;;;;;;7.00;3.00;;;22.70;80.10;;;;;;5046527;28;20072;-81
2021/06/15 07:03:30;;;;;;;3.55;2.28;;;22.90;79.90;;;;;;5044869;28;20049;-80
2021/06/15 07:05:55;;;;;;;9.57;2.72;;;23.00;80.00;;;;;;5036110;28;20041;-81
2021/06/15 07:08:21;;;;;;;9.35;2.92;;;23.10;79.10;;;;;;5043356;28;20059;-81
2021/06/15 07:10:47;;;;;;;4.80;2.42;;;23.30;78.20;;;;;;5041252;28;20061;-81
2021/06/15 07:13:12;;;;;;;3.58;2.33;;;23.40;79.20;;;;;;5038921;28;20079;-81
2021/06/15 07:15:38;;;;;;;7.43;2.58;;;23.50;78.10;;;;;;5046823;28;20065;-81
2021/06/15 07:18:04;;;;;;;4.65;2.33;;;23.60;77.10;;;;;;5054106;28;20166;-80
2021/06/15 07:20:30;;;;;;;6.28;2.60;;;23.70;78.00;;;;;;5055400;28;20054;-81
2021/06/15 07:22:55;;;;;;;11.15;2.47;;;23.80;77.60;;;;;;5052581;28;20310;-82
2021/06/15 07:25:21;;;;;;;6.90;2.63;;;24.00;76.90;;;;;;5048540;28;20048;-81
2021/06/15 07:27:47;;;;;;;5.07;1.85;;;24.00;77.00;;;;;;5046568;28;20045;-81
2021/06/15 07:30:13;;;;;;;4.85;2.78;;;24.20;77.20;;;;;;5054174;28;20043;-81
2021/06/15 07:32:39;;;;;;;102.07;22.45;;;24.20;75.90;;;;;;5052917;28;20356;-81
2021/06/15 07:35:05;;;;;;;80.15;20.90;;;24.30;76.90;;;;;;5053375;28;20048;-81
2021/06/15 07:37:30;;;;;;;21.50;7.05;;;24.50;77.10;;;;;;5051496;28;20052;-82
2021/06/15 07:39:56;;;;;;;11.63;3.22;;;24.60;76.80;;;;;;5041156;28;20033;-81
2021/06/15 07:42:22;;;;;;;3.72;2.10;;;24.70;76.40;;;;;;5044886;28;20308;-84
2021/06/15 07:44:48;;;;;;;9.18;3.55;;;24.80;76.70;;;;;;5046304;28;20041;-90
2021/06/15 07:47:13;;;;;;;5.72;2.85;;;24.90;75.60;;;;;;5044409;28;20030;-82
2021/06/15 07:49:39;;;;;;;7.00;2.83;;;24.90;75.40;;;;;;5036322;28;20052;-83
2021/06/15 07:52:04;;;;;;;5.18;2.78;;;25.00;76.30;;;;;;5038048;28;20047;-83
2021/06/15 07:54:30;;;;;;;5.70;2.47;;;25.10;76.60;;;;;;5053762;28;20040;-82
2021/06/15 07:56:55;;;;;;;7.15;3.00;;;25.10;76.10;;;;;;5038808;28;20037;-83
2021/06/15 07:59:21;;;;;;;24.45;4.57;;;25.10;76.10;;;;;;5041132;28;20044;-83
2021/06/15 08:01:46;;;;;;;14.57;4.00;;;25.10;77.20;;;;;;5054567;28;20040;-83
2021/06/15 08:04:15;;;;;;;10.98;3.17;;;25.30;76.60;;;;;;5051438;28;20047;-83
2021/06/15 08:06:40;;;;;;;10.95;3.22;;;25.40;76.80;;;;;;5033913;28;20095;-82
2021/06/15 08:09:06;;;;;;;5.25;2.92;;;25.40;76.30;;;;;;5052799;28;20041;-82
2021/06/15 08:11:31;;;;;;;4.43;3.03;;;25.50;75.80;;;;;;5053047;28;20136;-81
2021/06/15 08:13:57;;;;;;;6.38;2.28;;;25.60;75.10;;;;;;5035754;28;20464;-81
2021/06/15 08:16:23;;;;;;;9.48;3.28;;;25.60;76.40;;;;;;5032753;28;20147;-83
2021/06/15 08:18:48;;;;;;;2.90;2.20;;;25.60;75.80;;;;;;5039823;28;20500;-80
2021/06/15 08:21:14;;;;;;;6.68;2.60;;;25.70;75.70;;;;;;5053804;28;20321;-81
2021/06/15 08:23:40;;;;;;;5.63;3.22;;;25.70;75.40;;;;;;5039286;28;20056;-82
2021/06/15 08:26:05;;;;;;;5.43;2.88;;;25.70;75.20;;;;;;5032058;28;20282;-82
2021/06/15 08:28:31;;;;;;;3.85;2.60;;;25.70;75.40;;;;;;5043804;28;20108;-82
2021/06/15 08:30:57;;;;;;;5.07;2.92;;;25.70;75.90;;;;;;5053532;28;20056;-83
2021/06/15 08:33:23;;;;;;;4.97;2.58;;;25.70;75.50;;;;;;5049129;28;20388;-81
2021/06/15 08:35:49;;;;;;;5.63;2.95;;;25.70;74.80;;;;;;5052959;28;20361;-81
2021/06/15 08:38:17;;;;;;;5.88;3.40;;;25.80;74.50;;;;;;5048190;28;20083;-80
2021/06/15 08:40:45;;;;;;;5.25;2.83;;;25.90;74.70;;;;;;5053362;28;20055;-81
2021/06/15 08:43:11;;;;;;;5.95;2.85;;;26.00;77.10;;;;;;5054851;28;20043;-82
2021/06/15 08:45:37;;;;;;;3.80;2.47;;;26.10;72.80;;;;;;5065232;28;20067;-81
2021/06/15 08:48:03;;;;;;;5.00;2.88;;;26.30;72.60;;;;;;5044431;28;20041;-82
2021/06/15 08:50:29;;;;;;;4.90;2.60;;;26.40;74.50;;;;;;5051112;28;20063;-81
2021/06/15 08:52:55;;;;;;;7.10;2.78;;;26.50;72.20;;;;;;5052416;28;20044;-82
2021/06/15 08:55:26;;;;;;;5.63;2.53;;;26.60;73.10;;;;;;5052850;28;20070;-83
2021/06/15 08:58:21;;;;;;;5.90;2.55;;;26.60;74.10;;;;;;5052395;28;20075;-82
2021/06/15 09:00:46;;;;;;;4.57;2.92;;;26.60;74.20;;;;;;5042146;28;20071;-80
2021/06/15 09:03:14;;;;;;;5.95;3.10;;;26.70;73.40;;;;;;5050210;28;20052;-81
2021/06/15 09:05:40;;;;;;;6.55;3.45;;;26.60;73.50;;;;;;5050598;28;20349;-81
2021/06/15 09:08:11;;;;;;;5.85;3.00;;;26.60;72.60;;;;;;5045014;28;20098;-82
2021/06/15 09:10:38;;;;;;;5.82;3.53;;;26.60;74.20;;;;;;5050962;28;20108;-82
2021/06/15 09:13:04;;;;;;;5.78;3.22;;;26.60;72.00;;;;;;5053150;28;20423;-82
2021/06/15 09:15:31;;;;;;;9.05;3.63;;;26.60;71.20;;;;;;5039954;28;20041;-80
2021/06/15 09:17:57;;;;;;;4.47;2.47;;;26.70;72.40;;;;;;5051532;28;20147;-82
2021/06/15 09:20:26;;;;;;;6.22;3.90;;;26.60;72.50;;;;;;5050848;28;20048;-81
2021/06/15 09:23:04;;;;;;;6.90;4.43;;;26.70;73.00;;;;;;5052254;28;20037;-83
2021/06/15 09:25:31;;;;;;;4.55;3.15;;;26.70;70.90;;;;;;5051702;28;20047;-82
2021/06/15 09:27:58;;;;;;;7.40;3.83;;;26.80;72.70;;;;;;5039562;28;20041;-82
2021/06/15 09:30:26;;;;;;;8.27;3.63;;;26.80;71.40;;;;;;5045547;28;20166;-82
2021/06/15 09:32:53;;;;;;;6.55;3.38;;;26.90;73.20;;;;;;5056145;28;20078;-81
2021/06/15 09:35:22;;;;;;;3.63;2.67;;;27.00;72.30;;;;;;5054969;28;20051;-81
2021/06/15 09:37:55;;;;;;;7.28;3.72;;;27.10;72.50;;;;;;5054898;28;20428;-81
2021/06/15 09:40:25;;;;;;;6.50;4.13;;;27.20;70.30;;;;;;5056667;28;20045;-81
2021/06/15 09:43:04;;;;;;;7.47;3.65;;;27.20;70.10;;;;;;5056524;28;20078;-79
2021/06/15 09:45:39;;;;;;;7.47;4.18;;;27.30;70.40;;;;;;5056627;28;20428;-81
2021/06/15 09:48:23;;;;;;;7.18;3.50;;;27.40;68.60;;;;;;5036103;28;20056;-82
2021/06/15 09:50:50;;;;;;;8.48;3.90;;;27.40;69.60;;;;;;5037518;28;20137;-81
2021/06/15 09:53:44;;;;;;;6.50;3.08;;;27.60;70.50;;;;;;5038033;28;20048;-79
2021/06/15 09:56:14;;;;;;;7.63;4.60;;;27.80;70.40;;;;;;5036524;28;20553;-81
2021/06/15 09:58:45;;;;;;;5.90;3.90;;;27.90;69.00;;;;;;5051878;28;20041;-81
2021/06/15 10:01:34;;;;;;;8.97;4.67;;;27.90;70.10;;;;;;5055691;28;20043;-81
2021/06/15 10:04:21;;;;;;;8.07;4.28;;;27.90;68.70;;;;;;5049167;28;20041;-82
2021/06/15 10:06:57;;;;;;;13.07;4.40;;;27.90;69.50;;;;;;5052026;28;20068;-81
2021/06/15 10:09:30;;;;;;;7.22;4.35;;;27.90;69.70;;;;;;5052441;28;20106;-82
2021/06/15 10:12:07;;;;;;;5.35;3.53;;;27.90;69.30;;;;;;5055963;28;20029;-82
2021/06/15 10:14:34;;;;;;;8.05;4.30;;;27.90;68.40;;;;;;5050665;28;20045;-82
2021/06/15 10:17:00;;;;;;;7.95;4.20;;;27.90;69.10;;;;;;5054918;28;20091;-82
2021/06/15 10:19:26;;;;;;;8.35;4.32;;;27.90;69.90;;;;;;5056127;28;20327;-82
2021/06/15 10:21:53;;;;;;;9.80;3.65;;;27.90;69.30;;;;;;5056220;28;20041;-82
2021/06/15 10:24:23;;;;;;;6.50;4.18;;;28.00;69.20;;;;;;5055339;28;20037;-81
2021/06/15 10:26:50;;;;;;;9.45;3.88;;;28.10;70.30;;;;;;5055067;28;20157;-82
2021/06/15 10:29:16;;;;;;;6.60;4.43;;;28.10;69.40;;;;;;5054681;28;20056;-82
2021/06/15 10:31:43;;;;;;;9.48;4.60;;;28.20;66.90;;;;;;5046582;28;20033;-82
2021/06/15 10:34:09;;;;;;;9.27;4.25;;;28.10;67.50;;;;;;5048999;28;20041;-88
2021/06/15 10:36:40;;;;;;;8.77;4.85;;;28.10;66.80;;;;;;5057267;28;20033;-81
2021/06/15 10:39:15;;;;;;;8.05;5.78;;;28.00;68.60;;;;;;5058175;28;20033;-87
2021/06/15 10:41:41;;;;;;;17.15;10.18;;;27.80;68.00;;;;;;5054659;28;20336;-84
2021/06/15 10:44:08;;;;;;;14.70;6.47;;;27.70;69.90;;;;;;5037172;28;20076;-83
2021/06/15 10:46:39;;;;;;;12.57;6.25;;;27.70;69.60;;;;;;5043498;28;20242;-82
2021/06/15 10:49:12;;;;;;;11.57;5.38;;;27.80;70.50;;;;;;5037121;28;20110;-83
2021/06/15 10:51:53;;;;;;;11.20;5.40;;;27.80;69.60;;;;;;5049650;28;20091;-82
2021/06/15 10:54:42;;;;;;;22.33;9.05;;;27.80;69.50;;;;;;5045279;28;20037;-83
2021/06/15 10:57:22;;;;;;;11.43;5.93;;;27.80;68.00;;;;;;5047124;28;20343;-83
2021/06/15 11:00:20;;;;;;;10.82;6.22;;;27.90;70.30;;;;;;5038805;28;20069;-83
2021/06/15 11:03:17;;;;;;;9.85;5.78;;;27.90;69.10;;;;;;5058018;28;20073;-86
2021/06/15 11:05:59;;;;;;;9.80;5.45;;;28.10;69.00;;;;;;5052613;28;20033;-85
2021/06/15 11:08:27;;;;;;;5.65;4.25;;;28.20;69.20;;;;;;5055535;28;20041;-86
2021/06/15 11:11:02;;;;;;;8.10;4.65;;;28.30;68.10;;;;;;5055566;28;20037;-87
2021/06/15 11:13:40;;;;;;;11.82;5.03;;;28.20;68.30;;;;;;5055361;28;20045;-86
2021/06/15 11:16:06;;;;;;;4.55;3.63;;;28.20;67.70;;;;;;5056669;28;20422;-88
2021/06/15 11:18:32;;;;;;;5.25;4.25;;;28.30;65.80;;;;;;5056359;28;20369;-86
2021/06/15 11:21:14;;;;;;;7.15;3.85;;;28.30;66.10;;;;;;5055927;28;20067;-87
2021/06/15 11:23:40;;;;;;;7.38;4.00;;;28.40;65.90;;;;;;5053159;28;20040;-87
2021/06/15 11:26:14;;;;;;;8.93;4.85;;;28.40;65.50;;;;;;5056514;28;20629;-88
2021/06/15 11:28:44;;;;;;;5.20;3.60;;;28.50;65.00;;;;;;5056156;28;20049;-86
2021/06/15 11:31:20;;;;;;;8.98;4.32;;;28.60;68.90;;;;;;5055047;28;20140;-87
2021/06/15 11:34:15;;;;;;;11.10;3.72;;;28.70;65.80;;;;;;5056863;28;20400;-88
2021/06/15 11:36:49;;;;;;;6.75;3.95;;;28.90;66.60;;;;;;5057847;28;20037;-88
2021/06/15 11:39:27;;;;;;;4.60;2.85;;;29.00;66.30;;;;;;5055373;28;20095;-88
2021/06/15 11:42:20;;;;;;;6.18;3.42;;;29.10;64.70;;;;;;5057869;28;20123;-87
2021/06/15 11:44:59;;;;;;;8.48;3.30;;;29.20;62.40;;;;;;5059352;28;20036;-86
2021/06/15 11:47:30;;;;;;;5.43;3.40;;;29.00;61.90;;;;;;5054125;28;20055;-86
2021/06/15 11:50:25;;;;;;;9.23;3.28;;;29.00;63.20;;;;;;5055107;28;20044;-85
2021/06/15 11:53:06;;;;;;;6.15;2.72;;;29.00;64.40;;;;;;5054844;28;20419;-88
2021/06/15 11:55:44;;;;;;;6.35;3.65;;;29.00;63.00;;;;;;5055242;28;20033;-87
2021/06/15 11:58:19;;;;;;;7.32;2.97;;;29.10;63.20;;;;;;5054950;28;20076;-87
2021/06/15 12:00:49;;;;;;;3.95;2.42;;;29.20;64.20;;;;;;5055090;28;20127;-87
2021/06/15 12:03:18;;;;;;;4.55;2.97;;;29.30;63.40;;;;;;5055398;28;20028;-87
2021/06/15 12:05:46;;;;;;;7.65;2.78;;;29.30;62.00;;;;;;5053417;28;20349;-86
2021/06/15 12:08:13;;;;;;;4.00;2.60;;;29.30;63.20;;;;;;5055683;28;20037;-87
2021/06/15 12:10:39;;;;;;;9.65;3.63;;;29.40;63.10;;;;;;5054800;28;20032;-87
2021/06/15 12:13:08;;;;;;;4.75;3.08;;;29.40;63.30;;;;;;5064398;28;20059;-87
2021/06/15 12:15:54;;;;;;;5.93;3.15;;;29.30;63.50;;;;;;5045315;28;20094;-86
2021/06/15 12:18:22;;;;;;;9.70;3.50;;;29.30;62.30;;;;;;5037538;28;20041;-86
2021/06/15 12:20:54;;;;;;;5.05;2.67;;;29.30;65.80;;;;;;5036716;28;20121;-86
2021/06/15 12:23:23;;;;;;;7.50;3.08;;;29.30;63.70;;;;;;5042660;28;20370;-85
2021/06/15 12:25:49;;;;;;;7.45;3.60;;;29.30;63.60;;;;;;5055106;28;20160;-88
2021/06/15 12:28:20;;;;;;;7.18;3.30;;;29.30;64.10;;;;;;5047392;28;20120;-87
2021/06/15 12:30:59;;;;;;;5.20;2.73;;;29.30;63.30;;;;;;5052303;28;20052;-86
2021/06/15 12:33:26;;;;;;;8.05;3.58;;;29.30;63.50;;;;;;5051421;28;20037;-86
2021/06/15 12:36:01;;;;;;;4.60;3.17;;;29.30;62.90;;;;;;5042108;28;20033;-86
2021/06/15 12:38:27;;;;;;;5.95;3.33;;;29.30;62.00;;;;;;5053623;28;20037;-85
2021/06/15 12:40:52;;;;;;;7.93;3.53;;;29.20;63.10;;;;;;5048919;28;20375;-87
2021/06/15 12:43:22;;;;;;;4.57;2.92;;;29.30;64.50;;;;;;5053186;28;20368;-86
2021/06/15 12:45:47;;;;;;;7.47;3.10;;;29.20;63.20;;;;;;5054313;28;20040;-84
2021/06/15 12:48:21;;;;;;;5.88;3.33;;;29.10;63.50;;;;;;5059821;28;20045;-85
2021/06/15 12:50:58;;;;;;;5.95;3.00;;;29.10;65.70;;;;;;5058747;28;20071;-85
2021/06/15 12:53:28;;;;;;;6.18;3.88;;;29.20;65.30;;;;;;5054214;28;20071;-84
2021/06/15 12:55:53;;;;;;;8.43;3.72;;;29.40;63.50;;;;;;5054160;28;20075;-85
2021/06/15 12:58:26;;;;;;;7.30;3.88;;;29.50;63.50;;;;;;5058522;28;20470;-85
2021/06/15 13:00:51;;;;;;;4.47;3.45;;;29.50;62.10;;;;;;5064910;28;20166;-84
2021/06/15 13:03:17;;;;;;;6.15;3.97;;;29.50;61.70;;;;;;5060862;28;20076;-84
2021/06/15 13:05:45;;;;;;;5.55;3.78;;;29.60;63.40;;;;;;5058735;28;20036;-82